Offutt A F B, Nebraska
Current Conditions -  °F | °C
As of 3:16 AM on Friday 19 Dec 2014 (Local Time) from KOFF Reporting Station
Overcast Overcast  
Wind Chill: 24°   Ceiling: 800
Heat Index: 30°   Visibility: 9mi
Dew Point: 28°   Wind: 6mph
Humidity: 93%   Direction: 160°SSE
Pressure: 30.24"   Gusts: NA
Location:  41.1148°N, 95.9076°W
Report Text: KOFF 190916Z AUTO 16005KT 9SM BKN008 OVC015 M01/M02 A3024 RMK AO2 CIG 008V016 BKN V SCT
Loading
Personal Weather Stations






























Interactive Weather Map New forecast layout! Learn more

10-Day Weather Forecast

Advertisements
Track Severe Weather on mobile